Wilkie, Canada
Current Conditions -  °F | °C
As of 3:00 AM on Saturday 25 Oct 2014 (Local Time) from CYQW Reporting Station
Clear Clear  
Wind Chill: 26°   Ceiling: Unl
Heat Index: 32°   Visibility: 9mi
Dew Point: 23°   Wind: 7mph
Humidity: 69%   Direction: 280°W
Pressure: 30.01"   Gusts: NA
Location:  52.42°N, 108.7°W
Report Text: CYQW 250900Z AUTO 28006KT 9SM CLR 00/M05 A3001 RMK SLP183
Loading
Personal Weather Stations






























Interactive Weather Map
Tropical Storm Tracking
New forecast layout! Learn more

10-Day Weather Forecast

Advertisements
Track Severe Weather on mobile